Time;durP1;ratioP1;P1;durP2;ratioP2;P2;SDS_P1;SDS_P2;PMS_P1;PMS_P2;Temp;Humidity;BMP_temperature;BMP_pressure;BME280_temperature;BME280_humidity;BME280_pressure;Samples;Min_cycle;Max_cycle;Signal;HPM_P1;HPM_P2
2022/07/21 00:00:12;;;;;;;;;;;;;;;27.01;34.46;100032.66;4458628;32;19989;-83
2022/07/21 00:02:40;;;;;;;;;;;;;;;26.92;34.80;100027.78;4448289;32;19973;-84
2022/07/21 00:05:07;;;;;;;;;;;;;;;27.04;33.61;100032.50;4461979;32;19980;-84
2022/07/21 00:07:34;;;;;;;;;;;;;;;27.03;33.44;100041.44;4466163;32;19999;-85
2022/07/21 00:10:02;;;;;;;;;;;;;;;26.93;34.63;100040.13;4422390;32;19987;-85
2022/07/21 00:12:29;;;;;;;;;;;;;;;26.78;35.26;100033.78;4447651;32;20297;-84
2022/07/21 00:14:56;;;;;;;;;;;;;;;26.84;34.44;100039.66;4462353;32;20032;-84
2022/07/21 00:17:23;;;;;;;;;;;;;;;26.75;34.54;100031.25;4462057;32;19977;-84
2022/07/21 00:19:50;;;;;;;;;;;;;;;26.85;34.09;100038.72;4435042;32;19973;-83
2022/07/21 00:22:17;;;;;;;;;;;;;;;26.89;33.16;100036.75;4440062;32;19999;-84
2022/07/21 00:24:44;;;;;;;;;;;;;;;26.86;33.06;100035.09;4470524;32;20344;-85
2022/07/21 00:27:11;;;;;;;;;;;;;;;26.85;32.97;100037.84;4119213;32;10004226;-84
2022/07/21 00:29:38;;;;;;;;;;;;;;;26.81;33.42;100030.97;4418205;32;20002;-83
2022/07/21 00:32:05;;;;;;;;;;;;;;;26.86;33.56;100028.94;4446270;32;20533;-84
2022/07/21 00:34:32;;;;;;;;;;;;;;;26.84;33.03;100031.69;4429466;32;19991;-84
2022/07/21 00:36:59;;;;;;;;;;;;;;;26.95;33.68;100039.12;4420233;32;20001;-83
2022/07/21 00:39:27;;;;;;;;;;;;;;;26.87;33.90;100036.84;4439452;32;20341;-83
2022/07/21 00:41:54;;;;;;;;;;;;;;;26.88;33.43;100037.72;4403209;32;20004;-84
2022/07/21 00:44:25;;;;;;;;;;;;;;;26.96;32.82;100034.66;4431212;32;19988;-84
2022/07/21 00:46:52;;;;;;;;;;;;;;;26.97;33.03;100031.09;4432942;32;20316;-83
2022/07/21 00:49:19;;;;;;;;;;;;;;;26.96;32.81;100034.66;4435715;32;20779;-83
2022/07/21 00:51:47;;;;;;;;;;;;;;;26.86;33.43;100035.09;4430779;32;19986;-83
2022/07/21 00:54:15;;;;;;;;;;;;;;;26.77;33.81;100038.22;4404204;32;19998;-83
2022/07/21 00:56:43;;;;;;;;;;;;;;;26.82;34.21;100033.53;4434625;32;20020;-83
2022/07/21 00:59:10;;;;;;;;;;;;;;;26.80;34.88;100035.44;4428764;32;20000;-83
2022/07/21 01:01:37;;;;;;;;;;;;;;;26.68;35.29;100030.69;4417081;32;19985;-83
2022/07/21 01:04:05;;;;;;;;;;;;;;;26.75;34.61;100032.12;4412756;32;20012;-83
2022/07/21 01:06:31;;;;;;;;;;;;;;;26.59;34.57;100031.97;4438927;32;20027;-84
2022/07/21 01:08:58;;;;;;;;;;;;;;;26.57;35.41;100032.97;4445720;32;20310;-83
2022/07/21 01:11:27;;;;;;;;;;;;;;;26.59;35.16;100036.44;4444494;32;19985;-83
2022/07/21 01:13:54;;;;;;;;;;;;;;;26.48;35.20;100033.37;4425613;32;20400;-83
2022/07/21 01:16:21;;;;;;;;;;;;;;;26.50;34.38;100036.87;4416652;32;19981;-83
2022/07/21 01:18:48;;;;;;;;;;;;;;;26.58;35.23;100040.00;4430570;32;21018;-83
2022/07/21 01:21:36;;;;;;;;;;;;;;;26.38;35.04;100049.72;4417416;32;20419;-83
2022/07/21 01:24:04;;;;;;;;;;;;;;;26.42;36.11;100039.84;4437049;32;19996;-83
2022/07/21 01:26:31;;;;;;;;;;;;;;;26.30;35.61;100035.97;4430246;32;19992;-84
2022/07/21 01:28:58;;;;;;;;;;;;;;;26.26;35.98;100034.38;4422327;32;20071;-83
2022/07/21 01:31:25;;;;;;;;;;;;;;;26.15;36.72;100028.69;4430302;32;19989;-82
2022/07/21 01:33:52;;;;;;;;;;;;;;;26.13;36.50;100035.84;4431342;32;20561;-83
2022/07/21 01:36:19;;;;;;;;;;;;;;;26.16;36.65;100036.59;4437307;32;20037;-83
2022/07/21 01:41:34;;;;;;;;;;;;;;;25.96;36.81;100032.16;4434355;32;20001;-83
2022/07/21 01:44:06;;;;;;;;;;;;;;;26.01;36.78;100033.78;4403483;32;19969;-82
2022/07/21 01:46:34;;;;;;;;;;;;;;;25.93;37.41;100031.44;4429739;32;20696;-82
2022/07/21 01:49:02;;;;;;;;;;;;;;;25.83;37.65;100030.97;4431976;32;19996;-84
2022/07/21 01:51:29;;;;;;;;;;;;;;;25.73;37.84;100037.59;4436520;32;19977;-83
2022/07/21 01:53:56;;;;;;;;;;;;;;;25.77;37.88;100028.56;4406437;32;19977;-83
2022/07/21 01:56:24;;;;;;;;;;;;;;;25.67;38.01;100025.44;4432586;32;19981;-83
2022/07/21 01:58:51;;;;;;;;;;;;;;;25.69;38.08;100028.06;4418034;32;20036;-83
2022/07/21 02:01:20;;;;;;;;;;;;;;;25.83;36.93;100030.97;4430769;32;20006;-82
2022/07/21 02:03:47;;;;;;;;;;;;;;;25.51;37.87;100035.84;4436066;32;20003;-82
2022/07/21 02:06:14;;;;;;;;;;;;;;;25.56;38.39;100032.12;4417963;32;20017;-83
2022/07/21 02:08:44;;;;;;;;;;;;;;;25.55;38.59;100030.41;4405293;32;20695;-83
2022/07/21 02:11:12;;;;;;;;;;;;;;;25.60;38.48;100033.75;4420368;32;19986;-82
2022/07/21 02:13:39;;;;;;;;;;;;;;;25.45;38.64;100036.09;4416935;32;20318;-82
2022/07/21 02:16:06;;;;;;;;;;;;;;;25.37;38.91;100032.94;4416308;32;20009;-83
2022/07/21 02:18:34;;;;;;;;;;;;;;;25.36;39.26;100025.88;4416965;32;19986;-82
2022/07/21 02:21:01;;;;;;;;;;;;;;;25.27;39.97;100036.87;4422592;32;20072;-82
2022/07/21 02:23:28;;;;;;;;;;;;;;;25.35;39.00;100040.06;4418444;32;20029;-84
2022/07/21 02:25:56;;;;;;;;;;;;;;;25.26;38.92;100040.44;4427994;32;20038;-82
2022/07/21 02:28:23;;;;;;;;;;;;;;;25.26;39.16;100043.09;4426266;32;19978;-83
2022/07/21 02:30:51;;;;;;;;;;;;;;;25.24;39.44;100044.97;4442666;32;20362;-82
2022/07/21 02:33:18;;;;;;;;;;;;;;;25.13;40.22;100044.53;4435938;32;19985;-82
2022/07/21 02:35:45;;;;;;;;;;;;;;;25.17;39.89;100046.12;4418650;32;20023;-83
2022/07/21 02:38:13;;;;;;;;;;;;;;;25.10;39.96;100045.47;4435644;32;19982;-82
2022/07/21 02:40:40;;;;;;;;;;;;;;;25.25;39.12;100041.38;4422015;32;20302;-82
2022/07/21 02:43:07;;;;;;;;;;;;;;;25.27;39.40;100044.81;4431802;32;19989;-83
2022/07/21 02:45:34;;;;;;;;;;;;;;;25.21;39.61;100042.44;4423638;32;20000;-82
2022/07/21 02:48:03;;;;;;;;;;;;;;;25.22;39.72;100044.16;4417327;32;19998;-82
2022/07/21 02:50:30;;;;;;;;;;;;;;;25.04;40.07;100046.59;4431821;32;20000;-82
2022/07/21 02:52:58;;;;;;;;;;;;;;;24.80;41.02;100044.94;4441279;32;20014;-82
2022/07/21 02:55:25;;;;;;;;;;;;;;;25.17;39.60;100043.47;4447847;32;19997;-83
2022/07/21 02:58:03;;;;;;;;;;;;;;;25.15;39.85;100042.69;4407694;32;20005;-82
2022/07/21 03:00:30;;;;;;;;;;;;;;;25.10;39.78;100044.63;4433077;32;20647;-84
2022/07/21 03:02:57;;;;;;;;;;;;;;;25.00;40.19;100045.00;4446392;32;20028;-82
2022/07/21 03:05:24;;;;;;;;;;;;;;;24.88;40.26;100050.78;4430192;32;20037;-82
2022/07/21 03:07:51;;;;;;;;;;;;;;;24.92;40.65;100047.09;4431671;32;20026;-82
2022/07/21 03:10:18;;;;;;;;;;;;;;;24.90;40.25;100048.94;4417406;32;20016;-82
2022/07/21 03:12:44;;;;;;;;;;;;;;;25.09;40.31;100048.22;4440456;32;19991;-82
2022/07/21 03:15:11;;;;;;;;;;;;;;;25.13;40.03;100044.53;4433128;32;20020;-82
2022/07/21 03:17:38;;;;;;;;;;;;;;;25.01;40.84;100049.34;4438481;32;19974;-82
2022/07/21 03:20:05;;;;;;;;;;;;;;;24.90;40.89;100054.22;4431584;32;19984;-83
2022/07/21 03:22:33;;;;;;;;;;;;;;;24.89;40.98;100052.53;4433444;32;20323;-82
2022/07/21 03:24:59;;;;;;;;;;;;;;;24.82;40.94;100045.72;4438487;32;19989;-83
2022/07/21 03:27:26;;;;;;;;;;;;;;;24.68;41.43;100048.91;4431385;32;19987;-82
2022/07/21 03:29:54;;;;;;;;;;;;;;;24.72;41.08;100044.34;4431726;32;20368;-82
2022/07/21 03:32:21;;;;;;;;;;;;;;;24.68;41.75;100053.34;4417099;32;20015;-82
2022/07/21 03:34:48;;;;;;;;;;;;;;;24.65;41.55;100054.31;4417323;32;20480;-82
2022/07/21 03:37:15;;;;;;;;;;;;;;;24.71;40.98;100053.22;4432995;32;20001;-82
2022/07/21 03:39:42;;;;;;;;;;;;;;;24.80;41.29;100042.28;4440392;32;20041;-82
2022/07/21 03:42:09;;;;;;;;;;;;;;;24.75;41.81;100044.25;4439809;32;19977;-84
2022/07/21 03:44:36;;;;;;;;;;;;;;;24.89;41.24;100043.69;4447102;32;20408;-83
2022/07/21 03:47:03;;;;;;;;;;;;;;;24.72;42.21;100047.00;4442465;32;19985;-82
2022/07/21 03:49:30;;;;;;;;;;;;;;;24.71;42.51;100047.94;4438261;32;20012;-82
2022/07/21 03:51:57;;;;;;;;;;;;;;;24.76;42.12;100045.94;4431178;32;19981;-82
2022/07/21 03:54:23;;;;;;;;;;;;;;;24.77;42.23;100051.19;4435587;32;20003;-82
2022/07/21 03:56:50;;;;;;;;;;;;;;;24.90;42.27;100063.97;4443289;32;19988;-82
2022/07/21 03:59:17;;;;;;;;;;;;;;;24.88;42.57;100066.66;4439030;32;19985;-84
2022/07/21 04:01:45;;;;;;;;;;;;;;;24.86;43.17;100062.38;4447034;32;20040;-83
2022/07/21 04:04:12;;;;;;;;;;;;;;;24.78;43.59;100065.31;4420380;32;20338;-83
2022/07/21 04:06:39;;;;;;;;;;;;;;;24.94;42.72;100066.41;4446800;32;20091;-84
2022/07/21 04:09:06;;;;;;;;;;;;;;;24.84;43.16;100059.78;4446994;32;20447;-83
2022/07/21 04:11:33;;;;;;;;;;;;;;;24.94;43.05;100061.13;4447115;32;19979;-83
2022/07/21 04:14:00;;;;;;;;;;;;;;;24.86;43.49;100063.22;4448035;32;19996;-83
2022/07/21 04:16:27;;;;;;;;;;;;;;;25.06;42.29;100071.25;4442690;32;20032;-83
2022/07/21 04:18:54;;;;;;;;;;;;;;;24.95;42.80;100065.53;4420814;32;19981;-82
2022/07/21 04:21:21;;;;;;;;;;;;;;;24.91;44.00;100066.53;4431286;32;19973;-81
2022/07/21 04:23:49;;;;;;;;;;;;;;;25.04;44.08;100062.47;4431455;32;19993;-83
2022/07/21 04:26:16;;;;;;;;;;;;;;;25.17;43.47;100072.62;4418462;32;19993;-82
2022/07/21 04:28:43;;;;;;;;;;;;;;;25.20;43.90;100061.91;4437781;32;19996;-82
2022/07/21 04:31:10;;;;;;;;;;;;;;;25.25;43.17;100059.94;4436781;32;19997;-82
2022/07/21 04:33:37;;;;;;;;;;;;;;;25.20;44.10;100067.19;4433656;32;19993;-86
2022/07/21 04:36:05;;;;;;;;;;;;;;;25.35;44.10;100071.88;4404225;32;19993;-87
2022/07/21 04:38:31;;;;;;;;;;;;;;;25.43;44.32;100072.44;4436357;32;19990;-87
2022/07/21 04:40:58;;;;;;;;;;;;;;;25.51;44.38;100067.66;4443420;32;19991;-87
2022/07/21 04:43:25;;;;;;;;;;;;;;;25.62;44.13;100069.88;4431956;32;20291;-86
2022/07/21 04:45:52;;;;;;;;;;;;;;;25.47;43.74;100068.72;4445199;32;19976;-87
2022/07/21 04:48:21;;;;;;;;;;;;;;;25.69;43.86;100070.47;4438684;32;20209;-87
2022/07/21 04:50:48;;;;;;;;;;;;;;;25.74;44.62;100068.47;4418116;32;19977;-87
2022/07/21 04:53:14;;;;;;;;;;;;;;;25.78;43.86;100071.84;4437387;32;19992;-88
2022/07/21 04:55:42;;;;;;;;;;;;;;;25.89;43.91;100078.47;4430309;32;19992;-88
2022/07/21 04:58:09;;;;;;;;;;;;;;;25.91;42.83;100076.62;4430521;32;20000;-87
2022/07/21 05:00:36;;;;;;;;;;;;;;;26.02;42.60;100084.09;4438534;32;19989;-87
2022/07/21 05:03:03;;;;;;;;;;;;;;;26.04;42.38;100078.69;4438671;32;19994;-87
2022/07/21 05:05:30;;;;;;;;;;;;;;;26.10;42.10;100076.66;4430276;32;19996;-86
2022/07/21 05:07:57;;;;;;;;;;;;;;;26.19;41.97;100075.38;4416026;32;20023;-86
2022/07/21 05:10:24;;;;;;;;;;;;;;;26.25;41.78;100075.09;4429498;32;19988;-85
2022/07/21 05:12:51;;;;;;;;;;;;;;;26.33;41.60;100072.97;4429486;32;19985;-83
2022/07/21 05:15:18;;;;;;;;;;;;;;;26.37;41.64;100063.94;4430032;32;20077;-85
2022/07/21 05:17:45;;;;;;;;;;;;;;;26.43;41.26;100074.28;4429869;32;20739;-85
2022/07/21 05:20:12;;;;;;;;;;;;;;;26.50;41.11;100069.59;4404520;32;20002;-85
2022/07/21 05:22:39;;;;;;;;;;;;;;;26.57;41.45;100078.97;4399983;32;20033;-84
2022/07/21 05:25:06;;;;;;;;;;;;;;;26.69;41.36;100074.03;4413806;32;20028;-85
2022/07/21 05:27:33;;;;;;;;;;;;;;;26.82;41.04;100076.03;4414908;32;20053;-84
2022/07/21 05:30:00;;;;;;;;;;;;;;;26.85;41.28;100081.22;4403944;32;19993;-86
2022/07/21 05:32:27;;;;;;;;;;;;;;;26.95;41.57;100083.44;4429627;32;19982;-85
2022/07/21 05:34:54;;;;;;;;;;;;;;;27.16;41.70;100085.09;4432932;32;20435;-88
2022/07/21 05:37:21;;;;;;;;;;;;;;;27.14;41.86;100092.28;4440038;32;19985;-86
2022/07/21 05:39:48;;;;;;;;;;;;;;;27.17;41.81;100097.44;4438834;32;20322;-86
2022/07/21 05:42:15;;;;;;;;;;;;;;;27.29;41.28;100096.84;4437356;32;20040;-87
2022/07/21 05:44:42;;;;;;;;;;;;;;;27.44;40.17;100105.00;4422590;32;20378;-86
2022/07/21 05:47:09;;;;;;;;;;;;;;;27.52;40.17;100103.69;4439168;32;19973;-85
2022/07/21 05:49:36;;;;;;;;;;;;;;;27.47;40.41;100104.84;4410633;32;19981;-84
2022/07/21 05:52:03;;;;;;;;;;;;;;;27.51;39.58;100101.13;4432263;32;20041;-83
2022/07/21 05:54:30;;;;;;;;;;;;;;;27.62;39.40;100100.56;4439745;32;20442;-84
2022/07/21 05:56:58;;;;;;;;;;;;;;;27.60;39.00;100095.34;4410607;32;20701;-84
2022/07/21 05:59:25;;;;;;;;;;;;;;;27.75;39.31;100094.53;4442324;32;19988;-85
2022/07/21 06:01:52;;;;;;;;;;;;;;;27.68;40.03;100095.78;4447458;32;20680;-83
2022/07/21 06:04:19;;;;;;;;;;;;;;;27.75;39.53;100097.19;4447425;32;19977;-85
2022/07/21 06:06:46;;;;;;;;;;;;;;;27.75;38.81;100094.53;4433569;32;19981;-86
2022/07/21 06:09:13;;;;;;;;;;;;;;;27.94;38.43;100093.63;4453844;32;20036;-86
2022/07/21 06:11:40;;;;;;;;;;;;;;;27.98;37.16;100092.53;4450443;32;19989;-86
2022/07/21 06:14:07;;;;;;;;;;;;;;;28.20;36.85;100095.78;4433186;32;20326;-86
2022/07/21 06:16:35;;;;;;;;;;;;;;;28.42;37.12;100100.00;4420418;32;19996;-86
2022/07/21 06:19:02;;;;;;;;;;;;;;;28.55;36.32;100090.41;4447415;32;19973;-86
2022/07/21 06:21:29;;;;;;;;;;;;;;;28.55;36.83;100095.72;4449055;32;20418;-86
2022/07/21 06:23:56;;;;;;;;;;;;;;;28.76;35.88;100098.19;4454132;32;20040;-86
2022/07/21 06:26:25;;;;;;;;;;;;;;;28.93;34.75;100095.44;4446841;32;20028;-86
2022/07/21 06:28:52;;;;;;;;;;;;;;;29.11;34.65;100088.25;4420829;32;19969;-86
2022/07/21 06:31:19;;;;;;;;;;;;;;;29.52;34.09;100093.88;4447635;32;19973;-87
2022/07/21 06:33:46;;;;;;;;;;;;;;;29.77;33.40;100092.41;4447254;32;20338;-86
2022/07/21 06:36:13;;;;;;;;;;;;;;;30.13;33.15;100100.91;4447341;32;20036;-87
2022/07/21 06:38:41;;;;;;;;;;;;;;;30.47;32.83;100088.19;4419859;32;19981;-87
2022/07/21 06:41:08;;;;;;;;;;;;;;;30.69;31.08;100092.13;4446048;32;20263;-85
2022/07/21 06:43:34;;;;;;;;;;;;;;;31.14;30.70;100082.13;4451270;32;20027;-85
2022/07/21 06:46:01;;;;;;;;;;;;;;;31.72;28.26;100087.19;4456017;32;20333;-84
2022/07/21 06:48:29;;;;;;;;;;;;;;;31.94;29.15;100081.25;4462922;32;20325;-85
2022/07/21 06:50:56;;;;;;;;;;;;;;;32.26;28.58;100087.97;4436202;32;20088;-85
2022/07/21 06:53:23;;;;;;;;;;;;;;;32.39;29.25;100084.34;4456455;32;19993;-85
2022/07/21 06:55:52;;;;;;;;;;;;;;;32.73;27.38;100079.25;4459709;32;20041;-86
2022/07/21 06:58:28;;;;;;;;;;;;;;;32.91;26.62;100078.91;4463179;32;19985;-85
2022/07/21 07:00:55;;;;;;;;;;;;;;;32.99;27.80;100081.91;4457911;32;20039;-86
2022/07/21 07:03:24;;;;;;;;;;;;;;;33.41;25.66;100093.09;4457427;32;19981;-86
2022/07/21 07:05:51;;;;;;;;;;;;;;;33.53;26.74;100097.56;4448924;32;20321;-86
2022/07/21 07:08:18;;;;;;;;;;;;;;;33.57;27.10;100093.69;4448300;32;19985;-85
2022/07/21 07:10:48;;;;;;;;;;;;;;;33.82;26.71;100097.19;4435739;32;20020;-85
2022/07/21 07:13:17;;;;;;;;;;;;;;;33.94;26.22;100096.22;4446928;32;20052;-86
2022/07/21 07:16:04;;;;;;;;;;;;;;;33.97;26.55;100096.00;4442108;32;19995;-85
2022/07/21 07:18:31;;;;;;;;;;;;;;;34.48;25.32;100096.44;4446480;32;20316;-85
2022/07/21 07:20:58;;;;;;;;;;;;;;;34.46;25.22;100097.53;4443782;32;20008;-86
2022/07/21 07:23:25;;;;;;;;;;;;;;;34.73;25.01;100094.50;4444025;32;19977;-85
2022/07/21 07:25:52;;;;;;;;;;;;;;;34.99;23.41;100089.69;4442716;32;20372;-85
2022/07/21 07:28:19;;;;;;;;;;;;;;;34.95;24.08;100094.47;4444610;32;20048;-85
2022/07/21 07:30:48;;;;;;;;;;;;;;;34.76;27.05;100096.09;4433053;32;19980;-85
2022/07/21 07:33:15;;;;;;;;;;;;;;;35.06;24.87;100090.91;4444658;32;20034;-87
2022/07/21 07:35:42;;;;;;;;;;;;;;;35.35;23.91;100090.34;4442065;32;19973;-86
2022/07/21 07:38:14;;;;;;;;;;;;;;;35.23;24.80;100086.84;4430994;32;20046;-86
2022/07/21 07:40:41;;;;;;;;;;;;;;;35.45;23.22;100085.91;4452251;32;20013;-86
2022/07/21 07:43:08;;;;;;;;;;;;;;;35.76;23.02;100083.34;4454455;32;19985;-85
2022/07/21 07:45:35;;;;;;;;;;;;;;;35.77;24.35;100082.34;4453036;32;20837;-87
2022/07/21 07:48:02;;;;;;;;;;;;;;;35.60;24.39;100068.47;4446441;32;20563;-87
2022/07/21 07:50:29;;;;;;;;;;;;;;;35.95;24.11;100072.69;4355870;32;20041;-87
2022/07/21 07:52:56;;;;;;;;;;;;;;;36.15;24.48;100075.50;4392772;32;20360;-87
2022/07/21 07:55:23;;;;;;;;;;;;;;;36.07;24.65;100071.66;4448184;32;19996;-87
2022/07/21 07:57:50;;;;;;;;;;;;;;;36.28;21.71;100068.94;4436771;32;19973;-87
2022/07/21 08:00:17;;;;;;;;;;;;;;;36.47;21.17;100073.56;4471051;32;20011;-87
2022/07/21 08:03:05;;;;;;;;;;;;;;;36.70;22.02;100078.78;4454452;32;20736;-87
2022/07/21 08:05:31;;;;;;;;;;;;;;;36.57;22.66;100084.41;4448309;32;20047;-87
2022/07/21 08:07:58;;;;;;;;;;;;;;;36.34;21.78;100083.69;4448007;32;20086;-87
2022/07/21 08:10:25;;;;;;;;;;;;;;;36.45;23.57;100080.06;4465585;32;19991;-87
2022/07/21 08:13:08;;;;;;;;;;;;;;;36.76;21.64;100072.81;4459335;32;19988;-87
2022/07/21 08:15:36;;;;;;;;;;;;;;;37.21;23.01;100075.06;4478127;32;20320;-87
2022/07/21 08:18:04;;;;;;;;;;;;;;;36.96;23.22;100079.94;4437981;32;20338;-87
2022/07/21 08:20:31;;;;;;;;;;;;;;;37.29;23.64;100075.19;4477865;32;19984;-87
2022/07/21 08:22:59;;;;;;;;;;;;;;;37.24;21.92;100067.53;4450122;32;19992;-87
2022/07/21 08:25:26;;;;;;;;;;;;;;;37.23;20.76;100064.94;4477868;32;20052;-87
2022/07/21 08:27:53;;;;;;;;;;;;;;;37.66;20.59;100069.09;4472332;32;19980;-87
2022/07/21 08:30:20;;;;;;;;;;;;;;;37.90;19.20;100069.47;4462348;32;20317;-87
2022/07/21 08:32:55;;;;;;;;;;;;;;;37.25;20.57;100073.78;4101054;32;10004545;-87
2022/07/21 08:35:22;;;;;;;;;;;;;;;37.39;19.13;100059.81;4430903;32;19978;-87
2022/07/21 08:37:56;;;;;;;;;;;;;;;37.50;22.22;100061.59;4430422;32;19986;-87
2022/07/21 08:40:24;;;;;;;;;;;;;;;37.43;20.02;100053.16;4431069;32;20023;-87
2022/07/21 08:42:52;;;;;;;;;;;;;;;37.37;20.86;100056.44;4413453;32;20005;-87
2022/07/21 08:45:18;;;;;;;;;;;;;;;37.73;19.92;100062.12;4430916;32;20000;-87
2022/07/21 08:47:46;;;;;;;;;;;;;;;37.65;19.51;100057.44;4440587;32;20003;-87
2022/07/21 08:50:13;;;;;;;;;;;;;;;37.27;20.13;100055.59;4416644;32;20041;-86
2022/07/21 08:52:40;;;;;;;;;;;;;;;37.66;20.62;100061.00;4445078;32;19969;-87
2022/07/21 08:55:07;;;;;;;;;;;;;;;37.43;22.07;100047.75;4446164;32;19997;-87
2022/07/21 08:57:37;;;;;;;;;;;;;;;37.83;20.61;100056.69;4445454;32;20049;-86
2022/07/21 09:00:04;;;;;;;;;;;;;;;37.79;20.71;100049.88;4427885;32;19986;-86
2022/07/21 09:02:33;;;;;;;;;;;;;;;37.93;20.14;100052.97;4437893;32;20322;-87
2022/07/21 09:05:00;;;;;;;;;;;;;;;37.67;21.45;100046.47;4418662;32;19989;-87
2022/07/21 09:07:28;;;;;;;;;;;;;;;37.97;20.46;100052.69;4433082;32;20052;-87
2022/07/21 09:09:56;;;;;;;;;;;;;;;38.24;19.80;100044.63;4432475;32;19978;-87
2022/07/21 09:12:26;;;;;;;;;;;;;;;37.95;21.77;100046.59;4418732;32;19990;-87
2022/07/21 09:15:11;;;;;;;;;;;;;;;38.34;19.80;100042.72;4434270;32;19984;-87
2022/07/21 09:17:38;;;;;;;;;;;;;;;37.96;19.75;100043.72;4441995;32;19977;-86
2022/07/21 09:20:25;;;;;;;;;;;;;;;38.58;18.85;100044.09;4447790;32;19973;-87
2022/07/21 09:23:06;;;;;;;;;;;;;;;38.23;18.68;100047.47;4446374;32;19989;-87
2022/07/21 09:25:34;;;;;;;;;;;;;;;38.09;18.98;100041.56;4439168;32;20056;-87
2022/07/21 09:28:12;;;;;;;;;;;;;;;38.29;19.77;100033.34;4436846;32;19985;-87
2022/07/21 09:30:52;;;;;;;;;;;;;;;38.30;19.66;100027.81;4418173;32;20041;-88
2022/07/21 09:33:23;;;;;;;;;;;;;;;38.79;18.75;100027.56;4432502;32;20224;-91
2022/07/21 09:35:54;;;;;;;;;;;;;;;38.56;18.37;100028.00;4440442;32;20068;-84
2022/07/21 09:38:21;;;;;;;;;;;;;;;38.21;18.86;100020.59;4438355;32;19981;-85
2022/07/21 09:40:49;;;;;;;;;;;;;;;38.33;19.44;100021.25;4422094;32;20023;-85
2022/07/21 09:43:28;;;;;;;;;;;;;;;38.34;19.44;100021.09;4418268;32;19996;-86
2022/07/21 09:45:56;;;;;;;;;;;;;;;38.10;19.90;100021.66;4418353;32;19989;-86
2022/07/21 09:48:31;;;;;;;;;;;;;;;38.64;18.92;100015.56;4433235;32;20024;-85
2022/07/21 09:51:20;;;;;;;;;;;;;;;38.81;21.68;100010.19;4432372;32;20023;-87
2022/07/21 09:54:00;;;;;;;;;;;;;;;39.10;17.85;100013.69;4434282;32;19973;-87
2022/07/21 09:56:33;;;;;;;;;;;;;;;38.51;21.15;100002.38;4439139;32;20033;-87
2022/07/21 09:59:01;;;;;;;;;;;;;;;39.27;18.70;99999.28;4432049;32;20322;-87
2022/07/21 10:01:28;;;;;;;;;;;;;;;39.53;16.70;100005.59;4432380;32;19983;-87
2022/07/21 10:03:56;;;;;;;;;;;;;;;39.41;17.58;100006.00;4435574;32;20725;-88
2022/07/21 10:06:24;;;;;;;;;;;;;;;39.20;18.03;100003.63;4440870;32;19995;-86
2022/07/21 10:08:51;;;;;;;;;;;;;;;39.47;17.31;99994.56;4418730;32;20012;-89
2022/07/21 10:11:20;;;;;;;;;;;;;;;39.26;17.50;99987.59;4421724;32;20493;-90
2022/07/21 10:13:54;;;;;;;;;;;;;;;39.40;17.38;99993.50;4419120;32;20393;-87
2022/07/21 10:16:42;;;;;;;;;;;;;;;39.57;17.35;99984.47;4430918;32;19990;-89
2022/07/21 10:19:21;;;;;;;;;;;;;;;40.08;16.79;99981.91;4437107;32;19993;-89
2022/07/21 10:21:55;;;;;;;;;;;;;;;39.32;18.77;99990.72;4430304;32;20023;-89
2022/07/21 10:24:22;;;;;;;;;;;;;;;38.72;18.46;99986.72;4418569;32;20057;-90
2022/07/21 10:30:04;;;;;;;;;;;;;;;39.20;18.95;99982.81;4414190;32;20004;-90
2022/07/21 10:32:32;;;;;;;;;;;;;;;39.20;19.19;99980.09;4439801;32;19993;-90
2022/07/21 10:35:00;;;;;;;;;;;;;;;39.62;18.55;99976.72;4434443;32;19988;-89
2022/07/21 10:37:39;;;;;;;;;;;;;;;39.70;18.11;99974.06;4439355;32;20012;-90
2022/07/21 10:40:18;;;;;;;;;;;;;;;39.33;18.31;99970.75;4440360;32;20016;-90
2022/07/21 10:42:45;;;;;;;;;;;;;;;39.61;17.10;99963.34;4436961;32;19977;-90
2022/07/21 10:48:41;;;;;;;;;;;;;;;39.88;16.47;99959.59;4429368;32;20022;-90
2022/07/21 10:51:10;;;;;;;;;;;;;;;39.88;18.06;99965.03;4432821;32;20070;-91
2022/07/21 10:53:37;;;;;;;;;;;;;;;39.07;17.19;99964.25;4431835;32;20296;-91
2022/07/21 10:56:07;;;;;;;;;;;;;;;38.77;18.85;99956.50;4430352;32;20247;-90
2022/07/21 10:58:44;;;;;;;;;;;;;;;39.10;19.36;99960.38;4428904;32;21053;-90
2022/07/21 11:01:14;;;;;;;;;;;;;;;38.74;18.91;99960.38;4432428;32;20027;-87
2022/07/21 11:03:48;;;;;;;;;;;;;;;38.94;18.59;99954.84;4432955;32;20071;-87
2022/07/21 11:06:18;;;;;;;;;;;;;;;39.62;17.39;99941.47;4438091;32;20032;-86
2022/07/21 11:09:04;;;;;;;;;;;;;;;39.95;16.74;99930.81;4431725;32;19981;-87
2022/07/21 11:11:32;;;;;;;;;;;;;;;40.24;17.27;99937.75;4437871;32;19978;-86
2022/07/21 11:14:01;;;;;;;;;;;;;;;39.27;17.26;99937.84;4436910;32;20008;-86
2022/07/21 11:16:40;;;;;;;;;;;;;;;39.39;16.21;99932.19;4427936;32;20002;-86
2022/07/21 11:19:26;;;;;;;;;;;;;;;39.39;16.21;99926.78;4433529;32;19977;-89
2022/07/21 11:21:53;;;;;;;;;;;;;;;39.28;16.45;99928.75;4430389;32;20005;-87
2022/07/21 11:24:21;;;;;;;;;;;;;;;39.86;16.13;99918.28;4427859;32;19974;-88
2022/07/21 11:26:55;;;;;;;;;;;;;;;39.40;17.63;99923.06;4432438;32;20037;-88
2022/07/21 11:29:23;;;;;;;;;;;;;;;39.02;18.00;99914.28;4431381;32;19978;-89
2022/07/21 11:31:50;;;;;;;;;;;;;;;39.47;17.28;99918.69;4434581;32;20056;-88
2022/07/21 11:34:18;;;;;;;;;;;;;;;39.27;17.74;99908.06;4437482;32;20004;-91
2022/07/21 11:36:45;;;;;;;;;;;;;;;39.32;16.55;99912.19;4436575;32;19988;-90
2022/07/21 11:39:13;;;;;;;;;;;;;;;38.98;16.81;99902.91;4437333;32;20965;-87
2022/07/21 11:41:40;;;;;;;;;;;;;;;39.21;15.28;99897.84;4438454;32;20052;-89
2022/07/21 11:44:08;;;;;;;;;;;;;;;39.60;16.45;99902.87;4438457;32;20342;-91
2022/07/21 11:46:46;;;;;;;;;;;;;;;39.66;16.64;99907.63;4439192;32;20126;-87
2022/07/21 11:49:13;;;;;;;;;;;;;;;40.08;16.03;99901.41;4439113;32;19995;-87
2022/07/21 11:51:45;;;;;;;;;;;;;;;40.03;14.63;99882.06;4435354;32;19999;-85
2022/07/21 11:54:21;;;;;;;;;;;;;;;40.22;15.25;99887.22;4437354;32;20336;-87
2022/07/21 11:56:49;;;;;;;;;;;;;;;40.29;14.26;99881.16;4430026;32;19990;-87
2022/07/21 11:59:16;;;;;;;;;;;;;;;39.79;15.86;99879.25;4438428;32;19993;-87
2022/07/21 12:01:55;;;;;;;;;;;;;;;40.21;14.23;99880.13;4441947;32;20047;-87
2022/07/21 12:04:30;;;;;;;;;;;;;;;39.59;15.74;99882.19;4437027;32;20319;-86
2022/07/21 12:06:57;;;;;;;;;;;;;;;39.94;14.49;99877.63;4434818;32;20016;-86
2022/07/21 12:09:24;;;;;;;;;;;;;;;40.01;16.99;99873.22;4439058;32;19995;-88
2022/07/21 12:11:51;;;;;;;;;;;;;;;40.12;14.87;99864.81;4438509;32;19978;-85
2022/07/21 12:14:18;;;;;;;;;;;;;;;40.50;13.97;99873.38;4435385;32;21400;-87
2022/07/21 12:16:50;;;;;;;;;;;;;;;40.21;14.82;99869.28;4436601;32;20040;-88
2022/07/21 12:19:17;;;;;;;;;;;;;;;39.57;16.91;99859.84;4437745;32;20007;-87
2022/07/21 12:21:44;;;;;;;;;;;;;;;40.28;13.96;99860.47;4438139;32;19993;-84
2022/07/21 12:24:12;;;;;;;;;;;;;;;40.35;14.23;99858.78;4441410;32;19988;-89
2022/07/21 12:26:40;;;;;;;;;;;;;;;40.37;14.26;99862.19;4437226;32;20043;-86
2022/07/21 12:29:25;;;;;;;;;;;;;;;40.38;15.20;99858.44;4441360;32;19993;-85
2022/07/21 12:31:52;;;;;;;;;;;;;;;39.33;15.74;99857.00;4436979;32;19993;-83
2022/07/21 12:38:07;;;;;;;;;;;;;;;39.30;17.14;99853.56;4389712;32;20009;-88
2022/07/21 12:40:35;;;;;;;;;;;;;;;40.21;13.82;99855.72;4404057;32;20032;-86
2022/07/21 12:43:07;;;;;;;;;;;;;;;40.19;14.25;99855.00;4394046;32;20522;-86
2022/07/21 12:46:03;;;;;;;;;;;;;;;39.95;15.49;99841.34;4441854;32;19999;-84
2022/07/21 12:48:32;;;;;;;;;;;;;;;40.02;14.97;99842.41;4427482;32;20019;-85
2022/07/21 12:51:01;;;;;;;;;;;;;;;40.36;14.44;99833.34;4429033;32;20005;-86
2022/07/21 12:53:28;;;;;;;;;;;;;;;40.46;13.98;99834.00;4439533;32;19977;-86
2022/07/21 12:55:56;;;;;;;;;;;;;;;40.57;13.57;99830.97;4438386;32;19977;-87
2022/07/21 12:58:24;;;;;;;;;;;;;;;39.73;14.25;99813.84;4438178;32;20005;-85